Time;durP1;ratioP1;P1;durP2;ratioP2;P2;SDS_P1;SDS_P2;PMS_P1;PMS_P2;Temp;Humidity;BMP_temperature;BMP_pressure;BME280_temperature;BME280_humidity;BME280_pressure;Samples;Min_cycle;Max_cycle;Signal;HPM_P1;HPM_P2
2020/12/06 00:00:22;;;;;;;5.03;2.90;;;13.40;68.50;;;;;;4971934;28;20499;-75
2020/12/06 00:03:22;;;;;;;5.72;2.78;;;13.40;68.50;;;;;;4974485;28;20416;-75
2020/12/06 00:06:13;;;;;;;3.67;2.78;;;13.40;68.50;;;;;;4973463;28;20037;-75
2020/12/06 00:08:39;;;;;;;5.40;3.03;;;13.40;68.50;;;;;;4980113;28;20533;-75
2020/12/06 00:11:27;;;;;;;4.95;3.15;;;13.40;68.50;;;;;;4980843;28;20106;-75
2020/12/06 00:14:11;;;;;;;;;;;13.40;68.50;;;;;;4964433;28;20063;-75
2020/12/06 00:16:39;;;;;;;3.50;2.45;;;13.40;68.50;;;;;;4972814;28;19917;-76
2020/12/06 00:19:05;;;;;;;4.70;2.63;;;13.30;68.50;;;;;;4973167;28;20035;-75
2020/12/06 00:21:55;;;;;;;;;;;;;;;;;;;;;
2020/12/06 00:24:27;;;;;;;4.85;2.80;;;13.30;68.50;;;;;;4965813;28;20019;-76
2020/12/06 00:26:58;;;;;;;5.65;3.10;;;13.40;68.50;;;;;;4957203;28;20400;-76
2020/12/06 00:29:39;;;;;;;5.10;2.67;;;13.40;68.50;;;;;;4973893;28;20030;-76
2020/12/06 00:32:10;;;;;;;2.95;2.30;;;13.40;68.50;;;;;;4956978;28;20388;-75
2020/12/06 00:35:03;;;;;;;6.28;3.00;;;13.40;68.50;;;;;;4974513;28;20030;-75
2020/12/06 00:37:45;;;;;;;5.13;2.60;;;13.40;68.50;;;;;;4958197;28;20102;-75
2020/12/06 00:40:26;;;;;;;5.55;3.22;;;13.40;68.50;;;;;;4971883;28;20386;-75
2020/12/06 00:43:08;;;;;;;2.80;2.35;;;13.40;68.50;;;;;;4974271;28;20037;-76
2020/12/06 00:45:50;;;;;;;6.80;2.75;;;13.40;68.50;;;;;;4977888;28;20027;-75
2020/12/06 00:48:29;;;;;;;5.20;2.97;;;13.40;68.40;;;;;;4979479;28;20035;-75
2020/12/06 00:51:00;;;;;;;3.20;2.63;;;13.40;68.50;;;;;;4974861;28;20031;-76
2020/12/06 00:53:40;;;;;;;5.03;2.85;;;13.40;68.50;;;;;;4963756;28;20481;-75
2020/12/06 00:56:19;;;;;;;5.28;2.53;;;13.40;68.50;;;;;;4955947;28;20027;-75
2020/12/06 00:58:57;;;;;;;4.50;2.75;;;13.40;68.40;;;;;;4976290;28;20380;-75
2020/12/06 01:01:39;;;;;;;4.85;2.97;;;13.40;68.40;;;;;;4977318;28;20030;-76
2020/12/06 01:04:12;;;;;;;5.35;3.17;;;13.40;68.40;;;;;;4962380;28;20388;-75
2020/12/06 01:06:58;;;;;;;4.32;2.78;;;13.40;68.40;;;;;;4977531;28;20027;-75
2020/12/06 01:09:42;;;;;;;6.28;2.88;;;13.40;68.40;;;;;;4960874;28;20038;-75
2020/12/06 01:12:12;;;;;;;7.55;2.65;;;13.40;68.40;;;;;;4975945;28;20026;-76
2020/12/06 01:14:43;;;;;;;4.65;2.70;;;13.40;68.40;;;;;;4977336;28;20436;-76
2020/12/06 01:17:20;;;;;;;5.35;2.95;;;13.40;68.40;;;;;;4960790;28;20035;-75
2020/12/06 01:19:49;;;;;;;4.65;3.00;;;13.40;68.40;;;;;;4944726;28;20163;-75
2020/12/06 01:22:17;;;;;;;;;;;13.40;68.40;;;;;;4978434;28;20123;-75
2020/12/06 01:24:47;;;;;;;4.05;2.38;;;13.40;68.40;;;;;;4959897;28;19910;-76
2020/12/06 01:27:28;;;;;;;4.55;2.60;;;13.40;68.40;;;;;;4957143;28;20062;-75
2020/12/06 01:30:05;;;;;;;6.07;2.95;;;13.40;68.40;;;;;;4976377;28;20576;-76
2020/12/06 01:32:45;;;;;;;5.03;2.22;;;13.40;68.40;;;;;;4976578;28;20896;-76
2020/12/06 01:35:24;;;;;;;3.90;2.63;;;13.40;68.40;;;;;;4968842;28;20041;-78
2020/12/06 01:38:02;;;;;;;4.07;2.70;;;13.40;68.50;;;;;;4974367;28;20046;-76
2020/12/06 01:40:41;;;;;;;4.22;3.00;;;13.40;68.50;;;;;;4977465;28;20046;-76
2020/12/06 01:43:23;;;;;;;5.35;2.60;;;13.40;68.50;;;;;;4976584;28;20030;-76
2020/12/06 01:46:15;;;;;;;3.63;2.63;;;13.40;68.50;;;;;;4976169;28;20041;-75
2020/12/06 01:48:55;;;;;;;7.13;2.83;;;13.40;68.50;;;;;;4962351;28;20070;-75
2020/12/06 01:51:28;;;;;;;4.18;2.45;;;13.40;68.50;;;;;;4978738;28;20101;-80
2020/12/06 01:54:06;;;;;;;5.78;3.15;;;13.40;68.50;;;;;;4976789;28;20033;-75
2020/12/06 01:56:31;;;;;;;5.03;3.28;;;13.40;68.50;;;;;;4959530;28;20027;-76
2020/12/06 01:59:05;;;;;;;6.35;2.80;;;13.40;68.50;;;;;;4959527;28;20121;-76
2020/12/06 02:01:40;;;;;;;4.40;2.90;;;13.40;68.50;;;;;;4959599;28;20055;-75
2020/12/06 02:04:14;;;;;;;3.55;2.60;;;13.40;68.50;;;;;;4959567;28;20031;-75
2020/12/06 02:06:39;;;;;;;5.80;3.33;;;13.40;68.50;;;;;;4983488;28;20400;-77
2020/12/06 02:09:32;;;;;;;3.63;2.70;;;13.40;68.60;;;;;;4944907;28;20035;-76
2020/12/06 02:12:07;;;;;;;5.32;3.08;;;13.40;68.50;;;;;;4959754;28;20175;-75
2020/12/06 02:14:37;;;;;;;3.97;2.70;;;13.30;68.60;;;;;;4976479;28;20026;-76
2020/12/06 02:17:26;;;;;;;4.18;2.60;;;13.40;68.60;;;;;;4971964;28;20062;-76
2020/12/06 02:19:57;;;;;;;5.45;3.10;;;13.40;68.60;;;;;;4970428;28;20473;-76
2020/12/06 02:22:38;;;;;;;5.13;2.80;;;13.40;68.60;;;;;;4974477;28;20116;-76
2020/12/06 02:25:07;;;;;;;4.78;2.80;;;13.30;68.50;;;;;;4959480;28;20019;-75
2020/12/06 02:27:41;;;;;;;;;;;13.40;68.50;;;;;;4988543;28;20041;-75
2020/12/06 02:30:22;;;;;;;5.40;3.00;;;13.30;68.60;;;;;;4976252;28;20407;-75
2020/12/06 02:33:03;;;;;;;3.67;2.60;;;13.40;68.60;;;;;;4974831;28;20052;-75
2020/12/06 02:35:41;;;;;;;4.93;2.95;;;13.40;68.50;;;;;;4976947;28;20086;-75
2020/12/06 02:38:10;;;;;;;3.38;2.70;;;13.40;68.60;;;;;;4972847;28;20089;-75
2020/12/06 02:40:45;;;;;;;4.35;2.80;;;13.30;68.50;;;;;;4959197;28;20399;-76
2020/12/06 02:43:26;;;;;;;5.47;3.40;;;13.40;68.60;;;;;;4976182;28;20031;-75
2020/12/06 02:46:23;;;;;;;3.78;2.65;;;13.40;68.60;;;;;;4962985;28;20114;-75
2020/12/06 02:48:54;;;;;;;3.85;2.15;;;13.40;68.50;;;;;;4976784;28;20039;-75
2020/12/06 02:51:23;;;;;;;3.67;2.58;;;13.40;68.60;;;;;;4975612;28;20066;-76
2020/12/06 02:54:17;;;;;;;4.57;2.78;;;13.40;68.50;;;;;;4981542;28;20041;-75
2020/12/06 02:56:48;;;;;;;6.00;2.80;;;13.40;68.50;;;;;;4975909;28;20155;-75
2020/12/06 02:59:26;;;;;;;3.92;2.85;;;13.40;68.60;;;;;;4984348;28;20042;-75
2020/12/06 03:02:09;;;;;;;5.20;3.10;;;13.40;68.50;;;;;;4978266;28;20369;-76
2020/12/06 03:04:40;;;;;;;5.82;3.35;;;13.40;68.50;;;;;;4967292;28;20031;-75
2020/12/06 03:07:19;;;;;;;3.97;2.65;;;13.30;68.60;;;;;;4972611;28;20496;-75
2020/12/06 03:10:08;;;;;;;4.35;2.60;;;13.30;68.60;;;;;;4967697;28;20043;-75
2020/12/06 03:12:45;;;;;;;5.80;3.15;;;13.30;68.50;;;;;;4958406;28;20022;-75
2020/12/06 03:15:47;;;;;;;;;;;;;;;;;;;;;
2020/12/06 03:18:15;;;;;;;4.32;3.17;;;13.40;68.60;;;;;;4973115;28;20379;-75
2020/12/06 03:20:59;;;;;;;4.53;3.30;;;13.30;68.60;;;;;;4975565;28;20055;-75
2020/12/06 03:24:09;;;;;;;4.35;2.63;;;13.40;68.60;;;;;;4941927;28;20043;-75
2020/12/06 03:26:48;;;;;;;5.90;3.00;;;13.30;68.60;;;;;;4976026;28;20085;-74
2020/12/06 03:29:19;;;;;;;3.78;2.63;;;13.30;68.60;;;;;;4958276;28;20034;-76
2020/12/06 03:31:58;;;;;;;5.15;3.45;;;13.40;68.60;;;;;;4964069;28;20031;-75
2020/12/06 03:34:28;;;;;;;4.10;2.65;;;13.40;68.60;;;;;;4971555;28;20041;-75
2020/12/06 03:37:08;;;;;;;5.07;3.38;;;13.40;68.60;;;;;;4958527;28;20035;-76
2020/12/06 03:40:10;;;;;;;4.80;2.85;;;13.40;68.60;;;;;;4958307;28;20027;-75
2020/12/06 03:42:35;;;;;;;4.32;2.80;;;13.40;68.60;;;;;;4974848;28;20449;-75
2020/12/06 03:45:07;;;;;;;3.80;2.42;;;13.40;68.50;;;;;;4955458;28;20115;-75
2020/12/06 03:47:46;;;;;;;4.97;3.10;;;13.40;68.60;;;;;;4968404;28;20082;-75
2020/12/06 03:50:20;;;;;;;5.50;3.08;;;13.30;68.50;;;;;;4956080;29;20046;-75
2020/12/06 03:52:53;;;;;;;4.68;3.15;;;13.40;68.60;;;;;;4955277;29;20042;-75
2020/12/06 03:55:33;;;;;;;4.65;3.38;;;13.40;68.60;;;;;;4950792;28;20050;-75
2020/12/06 03:58:07;;;;;;;5.07;3.33;;;13.40;68.60;;;;;;4972473;28;20041;-75
2020/12/06 04:00:58;;;;;;;4.50;2.88;;;13.40;68.60;;;;;;4957426;28;20034;-75
2020/12/06 04:03:42;;;;;;;4.07;2.92;;;13.40;68.50;;;;;;4955509;29;20047;-75
2020/12/06 04:06:33;;;;;;;5.15;3.25;;;13.40;68.50;;;;;;4948971;28;20027;-75
2020/12/06 04:09:05;;;;;;;4.53;2.90;;;13.40;68.50;;;;;;4955767;29;20038;-75
2020/12/06 04:11:43;;;;;;;4.47;2.83;;;13.40;68.50;;;;;;4969363;28;20031;-79
2020/12/06 04:14:23;;;;;;;4.25;2.72;;;13.40;68.50;;;;;;4973881;28;20366;-75
2020/12/06 04:17:05;;;;;;;4.20;2.60;;;13.40;68.60;;;;;;4957828;28;20031;-76
2020/12/06 04:19:44;;;;;;;4.22;2.85;;;13.40;68.50;;;;;;4957381;28;20030;-75
2020/12/06 04:22:18;;;;;;;4.97;3.30;;;13.40;68.50;;;;;;4974768;28;20034;-75
2020/12/06 04:24:49;;;;;;;4.40;2.70;;;13.40;68.50;;;;;;4957707;28;20083;-75
2020/12/06 04:27:28;;;;;;;5.30;2.90;;;13.40;68.50;;;;;;4974339;28;20023;-75
2020/12/06 04:29:59;;;;;;;5.88;3.22;;;13.40;68.50;;;;;;4963941;28;20038;-75
2020/12/06 04:32:48;;;;;;;3.88;2.92;;;13.40;68.50;;;;;;4974429;28;20038;-75
2020/12/06 04:35:27;;;;;;;3.95;2.80;;;13.30;68.60;;;;;;4957359;28;20473;-76
2020/12/06 04:37:59;;;;;;;3.90;2.72;;;13.30;68.60;;;;;;4974420;28;20039;-75
2020/12/06 04:40:39;;;;;;;3.20;2.55;;;13.40;68.60;;;;;;4957300;28;20038;-76
2020/12/06 04:43:23;;;;;;;5.50;2.97;;;13.40;68.50;;;;;;4974370;28;20038;-75
2020/12/06 04:46:05;;;;;;;5.57;3.22;;;13.40;68.60;;;;;;4974060;28;20023;-75
2020/12/06 04:48:55;;;;;;;5.22;3.33;;;13.40;68.50;;;;;;4973281;28;20045;-75
2020/12/06 04:51:38;;;;;;;4.65;2.88;;;13.40;68.50;;;;;;4958219;28;20059;-75
2020/12/06 04:54:20;;;;;;;4.05;2.92;;;13.40;68.50;;;;;;4955016;29;20023;-75
2020/12/06 04:56:55;;;;;;;4.07;2.47;;;13.30;68.60;;;;;;4969519;28;20032;-75
2020/12/06 04:59:28;;;;;;;4.38;2.60;;;13.40;68.60;;;;;;4991343;28;20034;-75
2020/12/06 05:02:20;;;;;;;4.28;2.97;;;13.40;68.70;;;;;;4959335;28;20051;-75
2020/12/06 05:05:05;;;;;;;3.28;2.63;;;13.40;68.70;;;;;;4957287;28;20027;-75
2020/12/06 05:07:34;;;;;;;7.25;3.38;;;13.30;68.60;;;;;;4973926;28;20031;-76
2020/12/06 05:10:04;;;;;;;3.92;2.88;;;13.40;68.60;;;;;;4973544;28;20093;-77
2020/12/06 05:12:49;;;;;;;5.65;2.58;;;13.30;68.90;;;;;;4974561;28;20034;-75
2020/12/06 05:15:36;;;;;;;3.92;2.67;;;13.30;69.10;;;;;;4956537;28;20465;-74
2020/12/06 05:18:10;;;;;;;4.50;2.92;;;13.40;68.90;;;;;;4956874;28;20461;-75
2020/12/06 05:20:57;;;;;;;3.58;2.80;;;13.40;68.80;;;;;;4973591;28;20023;-75
2020/12/06 05:23:27;;;;;;;5.03;2.47;;;13.40;68.80;;;;;;4960180;28;20054;-75
2020/12/06 05:26:10;;;;;;;3.90;2.92;;;13.40;68.80;;;;;;4956785;28;20031;-75
2020/12/06 05:28:51;;;;;;;;;;;;;;;;;;;;;
2020/12/06 05:31:30;;;;;;;3.53;2.65;;;13.40;69.00;;;;;;4973647;28;20027;-75
2020/12/06 05:34:10;;;;;;;5.55;3.00;;;13.40;68.90;;;;;;4940350;28;20034;-75
2020/12/06 05:36:50;;;;;;;5.60;3.05;;;13.40;68.90;;;;;;4974903;28;20023;-75
2020/12/06 05:39:33;;;;;;;4.50;3.15;;;13.40;68.90;;;;;;4974046;28;20041;-79
2020/12/06 05:42:07;;;;;;;4.63;3.00;;;13.40;68.90;;;;;;4973810;28;20035;-75
2020/12/06 05:44:38;;;;;;;3.40;2.40;;;13.40;69.00;;;;;;4968062;28;20041;-75
2020/12/06 05:47:14;;;;;;;3.45;2.50;;;13.30;69.00;;;;;;4976938;28;20089;-77
2020/12/06 05:49:44;;;;;;;4.22;2.83;;;13.40;69.00;;;;;;4959693;28;20031;-76
2020/12/06 05:52:28;;;;;;;4.22;2.83;;;13.40;68.90;;;;;;4978694;28;20452;-75
2020/12/06 05:55:00;;;;;;;5.18;3.20;;;13.30;68.80;;;;;;4975631;28;20027;-75
2020/12/06 05:58:02;;;;;;;4.57;3.00;;;13.40;68.90;;;;;;4977685;28;20022;-75
2020/12/06 06:00:44;;;;;;;4.28;2.58;;;13.30;68.90;;;;;;4976864;28;20481;-75
2020/12/06 06:03:26;;;;;;;3.55;2.63;;;13.40;68.80;;;;;;4959681;28;20111;-75
2020/12/06 06:06:22;;;;;;;4.90;2.92;;;13.40;68.90;;;;;;4959980;28;20027;-75
2020/12/06 06:09:02;;;;;;;4.93;3.00;;;13.30;68.90;;;;;;4976449;28;20029;-76
2020/12/06 06:11:32;;;;;;;5.32;3.33;;;13.30;68.90;;;;;;4974770;28;20059;-75
2020/12/06 06:14:03;;;;;;;4.78;3.17;;;13.40;68.90;;;;;;4959622;28;20117;-75
2020/12/06 06:16:33;;;;;;;5.63;2.45;;;13.40;68.90;;;;;;4976781;28;20035;-75
2020/12/06 06:19:12;;;;;;;3.38;2.63;;;13.30;68.90;;;;;;4975486;28;20037;-75
2020/12/06 06:21:57;;;;;;;5.15;3.72;;;13.40;68.90;;;;;;4975077;28;20034;-77
2020/12/06 06:24:45;;;;;;;6.28;3.00;;;13.40;68.90;;;;;;4971859;28;20046;-75
2020/12/06 06:27:24;;;;;;;4.20;2.95;;;13.40;68.90;;;;;;4958906;28;20543;-75
2020/12/06 06:30:25;;;;;;;;;;;;;;;;;;;;;
2020/12/06 06:33:03;;;;;;;7.65;3.17;;;13.40;68.90;;;;;;4973038;28;20027;-76
2020/12/06 06:35:33;;;;;;;5.78;3.00;;;13.40;68.90;;;;;;4965839;28;20370;-75
2020/12/06 06:37:59;;;;;;;4.60;2.80;;;13.30;68.80;;;;;;4971288;28;20041;-75
2020/12/06 06:40:36;;;;;;;4.45;2.80;;;13.40;68.90;;;;;;4957817;28;20030;-75
2020/12/06 06:43:05;;;;;;;3.57;2.43;;;13.40;68.90;;;;;;4972117;28;20127;-78
2020/12/06 06:45:50;;;;;;;4.55;3.20;;;13.40;68.90;;;;;;4975860;28;20031;-75
2020/12/06 06:48:33;;;;;;;3.58;2.70;;;13.40;68.80;;;;;;4975886;28;20030;-75
2020/12/06 06:51:02;;;;;;;4.65;2.95;;;13.40;68.80;;;;;;4944426;28;20034;-75
2020/12/06 06:53:41;;;;;;;;;;;13.30;68.90;;;;;;4958743;28;20089;-75
2020/12/06 06:56:27;;;;;;;5.57;3.20;;;13.40;68.90;;;;;;4976091;28;20272;-75
2020/12/06 06:59:13;;;;;;;4.78;3.25;;;13.40;68.90;;;;;;4958965;28;20437;-75
2020/12/06 07:01:55;;;;;;;3.75;2.45;;;13.40;68.90;;;;;;4975071;28;20085;-75
2020/12/06 07:04:28;;;;;;;5.65;3.40;;;13.40;68.90;;;;;;4982191;28;20030;-75
2020/12/06 07:06:59;;;;;;;5.78;3.42;;;13.40;68.90;;;;;;4983572;28;20031;-75
2020/12/06 07:09:43;;;;;;;5.22;3.30;;;13.40;68.90;;;;;;4986044;28;20027;-75
2020/12/06 07:12:10;;;;;;;7.07;3.60;;;13.40;68.90;;;;;;4975258;28;20440;-75
2020/12/06 07:14:43;;;;;;;4.47;2.95;;;13.30;68.80;;;;;;4975758;28;20034;-75
2020/12/06 07:17:13;;;;;;;4.95;2.85;;;13.30;68.80;;;;;;4971844;28;20033;-76
2020/12/06 07:19:47;;;;;;;7.85;3.60;;;13.40;68.80;;;;;;4975707;28;20030;-75
2020/12/06 07:22:22;;;;;;;3.28;2.67;;;13.40;68.80;;;;;;4975913;28;20019;-75
2020/12/06 07:25:02;;;;;;;3.97;3.00;;;13.40;68.80;;;;;;4972032;28;20063;-75
2020/12/06 07:27:41;;;;;;;4.43;3.30;;;13.40;68.80;;;;;;4977806;28;20495;-75
2020/12/06 07:30:16;;;;;;;4.47;3.08;;;13.40;68.80;;;;;;4975339;28;20118;-75
2020/12/06 07:32:48;;;;;;;3.95;2.70;;;13.40;68.80;;;;;;4975535;28;20022;-76
2020/12/06 07:35:46;;;;;;;4.13;3.00;;;13.40;68.80;;;;;;4957879;28;20035;-76
2020/12/06 07:38:44;;;;;;;4.05;2.78;;;13.40;68.80;;;;;;4974257;28;20035;-75
2020/12/06 07:41:23;;;;;;;4.32;3.13;;;13.40;68.90;;;;;;4967915;28;20433;-75
2020/12/06 07:43:55;;;;;;;4.38;3.25;;;13.40;68.80;;;;;;4977721;28;20035;-75
2020/12/06 07:46:25;;;;;;;4.85;3.58;;;13.40;68.70;;;;;;4975145;28;20027;-75
2020/12/06 07:49:02;;;;;;;4.70;3.10;;;13.40;68.70;;;;;;4975146;28;20041;-74
2020/12/06 07:51:29;;;;;;;4.95;3.35;;;13.40;68.70;;;;;;4973667;28;20045;-82
2020/12/06 07:54:19;;;;;;;3.75;2.75;;;13.40;68.70;;;;;;4975070;28;20125;-74
2020/12/06 07:56:50;;;;;;;4.55;2.92;;;13.40;68.70;;;;;;4974494;28;20042;-76
2020/12/06 07:59:32;;;;;;;3.90;3.03;;;13.40;68.70;;;;;;4980550;28;20038;-76
2020/12/06 08:02:08;;;;;;;4.82;2.88;;;13.40;68.70;;;;;;4974720;28;20043;-75
2020/12/06 08:04:53;;;;;;;4.57;2.92;;;13.40;68.70;;;;;;4969734;28;20392;-75
2020/12/06 08:07:42;;;;;;;5.82;2.92;;;13.40;68.70;;;;;;4975116;28;20019;-75
2020/12/06 08:10:21;;;;;;;5.53;3.05;;;13.50;68.60;;;;;;4974446;28;20027;-75
2020/12/06 08:13:08;;;;;;;4.90;2.97;;;13.50;68.70;;;;;;4974527;28;20035;-77
2020/12/06 08:15:41;;;;;;;6.95;3.50;;;13.40;68.70;;;;;;4972171;28;20497;-75
2020/12/06 08:18:17;;;;;;;5.43;3.22;;;13.40;68.60;;;;;;4967722;28;20396;-77
2020/12/06 08:21:00;;;;;;;4.78;2.92;;;13.50;68.70;;;;;;4972087;28;20101;-78
2020/12/06 08:23:36;;;;;;;4.53;3.20;;;13.40;68.60;;;;;;4956554;28;20038;-76
2020/12/06 08:26:24;;;;;;;5.32;3.30;;;13.50;68.60;;;;;;4972760;28;20381;-78
2020/12/06 08:28:50;;;;;;;4.80;3.35;;;13.40;68.70;;;;;;4971160;28;20481;-76
2020/12/06 08:31:24;;;;;;;5.05;3.45;;;13.50;68.60;;;;;;4972912;28;20035;-75
2020/12/06 08:34:20;;;;;;;5.32;3.20;;;13.50;68.60;;;;;;4974150;28;20030;-75
2020/12/06 08:36:56;;;;;;;6.22;3.75;;;13.50;68.60;;;;;;4970639;28;20030;-75
2020/12/06 08:39:45;;;;;;;4.63;3.00;;;13.50;68.60;;;;;;4974747;28;20084;-75
2020/12/06 08:42:20;;;;;;;;;;;13.50;68.60;;;;;;4975033;28;20127;-75
2020/12/06 08:44:56;;;;;;;6.07;3.05;;;13.50;68.60;;;;;;4972908;28;19948;-75
2020/12/06 08:47:48;;;;;;;4.53;3.33;;;13.50;68.50;;;;;;4958034;28;20461;-75
2020/12/06 08:50:52;;;;;;;5.15;3.47;;;13.50;68.60;;;;;;4974420;28;20027;-76
2020/12/06 08:53:33;;;;;;;5.53;3.35;;;13.50;68.60;;;;;;4963718;28;20031;-75
2020/12/06 08:56:34;;;;;;;4.80;3.05;;;13.50;68.50;;;;;;4973063;28;20031;-75
2020/12/06 08:59:43;;;;;;;;;;;;;;;;;;;;;
2020/12/06 09:02:16;;;;;;;5.28;3.10;;;13.50;68.50;;;;;;4950699;29;20135;-77
2020/12/06 09:05:07;;;;;;;4.57;3.13;;;13.50;68.50;;;;;;4961821;28;20026;-75
2020/12/06 09:08:01;;;;;;;4.35;3.33;;;13.50;68.40;;;;;;4963660;28;20043;-75
2020/12/06 09:10:41;;;;;;;6.85;3.30;;;13.50;68.40;;;;;;4967245;28;20066;-75
2020/12/06 09:13:15;;;;;;;4.93;3.17;;;13.50;68.40;;;;;;4975633;28;20035;-75
2020/12/06 09:15:57;;;;;;;4.90;3.28;;;13.50;68.40;;;;;;4958178;28;20034;-75
2020/12/06 09:18:29;;;;;;;6.45;3.33;;;13.50;68.30;;;;;;4960059;28;20031;-75
2020/12/06 09:21:01;;;;;;;4.90;3.25;;;13.50;68.30;;;;;;4977376;28;20038;-75
2020/12/06 09:23:40;;;;;;;4.28;2.85;;;13.50;68.30;;;;;;4954647;28;20031;-75
2020/12/06 09:26:11;;;;;;;5.28;3.75;;;13.60;68.30;;;;;;4976747;28;20031;-75
2020/12/06 09:28:51;;;;;;;6.07;3.40;;;13.60;68.20;;;;;;4970360;28;20039;-75
2020/12/06 09:31:24;;;;;;;5.45;3.05;;;13.60;68.10;;;;;;4956592;28;20031;-75
2020/12/06 09:34:02;;;;;;;5.07;3.17;;;13.60;68.10;;;;;;4976648;28;20063;-76
2020/12/06 09:36:32;;;;;;;4.35;3.10;;;13.60;68.00;;;;;;4959688;28;20031;-77
2020/12/06 09:39:10;;;;;;;4.95;3.45;;;13.60;68.00;;;;;;4967014;28;20087;-75
2020/12/06 09:41:46;;;;;;;4.78;3.25;;;13.60;68.00;;;;;;4940901;29;20023;-75
2020/12/06 09:44:27;;;;;;;4.88;3.20;;;13.60;68.00;;;;;;4980310;28;20104;-75
2020/12/06 09:46:56;;;;;;;5.63;3.75;;;13.60;68.00;;;;;;4955527;28;20031;-75
2020/12/06 09:49:49;;;;;;;5.68;3.60;;;13.60;68.00;;;;;;4977230;28;20030;-75
2020/12/06 10:25:16;;;;;;;4.70;3.28;;;13.80;67.60;;;;;;5051009;28;20463;-76
2020/12/06 10:27:54;;;;;;;5.53;3.40;;;13.80;67.60;;;;;;5040319;28;20103;-76
2020/12/06 10:30:25;;;;;;;4.65;3.15;;;13.80;67.60;;;;;;5020124;28;20037;-75
2020/12/06 10:32:56;;;;;;;5.28;3.28;;;13.80;67.50;;;;;;5048594;28;20115;-76
2020/12/06 10:35:47;;;;;;;4.68;3.15;;;13.80;67.40;;;;;;5055186;28;20021;-75
2020/12/06 10:38:23;;;;;;;4.93;2.92;;;13.80;67.30;;;;;;5050660;28;20041;-76
2020/12/06 10:41:05;;;;;;;5.40;3.30;;;13.80;67.40;;;;;;5054383;28;20104;-75
2020/12/06 10:43:36;;;;;;;5.50;3.53;;;13.80;67.50;;;;;;5053126;28;20033;-74
2020/12/06 10:46:14;;;;;;;4.63;3.10;;;13.80;67.60;;;;;;5054882;28;20107;-76
2020/12/06 10:48:44;;;;;;;5.10;3.15;;;13.90;67.90;;;;;;5054976;28;20032;-75
2020/12/06 10:51:35;;;;;;;4.55;3.03;;;13.90;67.90;;;;;;5051884;28;20037;-75
2020/12/06 10:54:05;;;;;;;6.35;3.50;;;13.80;67.90;;;;;;5053867;28;20036;-77
2020/12/06 10:56:50;;;;;;;4.47;3.03;;;13.90;67.90;;;;;;5054890;28;20029;-77
2020/12/06 10:59:36;;;;;;;5.15;3.20;;;13.90;68.40;;;;;;5042145;28;20025;-76
2020/12/06 11:02:07;;;;;;;5.72;3.33;;;13.90;67.70;;;;;;5034835;28;20114;-76
2020/12/06 11:04:43;;;;;;;8.20;3.08;;;13.90;67.70;;;;;;5054403;28;20020;-76
2020/12/06 11:07:21;;;;;;;5.13;3.33;;;13.90;67.70;;;;;;5047836;28;20029;-78
2020/12/06 11:09:52;;;;;;;4.50;3.08;;;13.90;67.70;;;;;;5049795;28;20056;-76
2020/12/06 11:12:39;;;;;;;5.90;3.28;;;13.80;67.70;;;;;;5067983;28;20401;-76
2020/12/06 11:15:09;;;;;;;4.97;3.08;;;13.80;67.70;;;;;;5073371;28;20029;-76
2020/12/06 11:17:41;;;;;;;4.63;3.15;;;13.80;67.70;;;;;;5058584;28;20021;-76
2020/12/06 11:20:17;;;;;;;6.00;3.15;;;13.80;67.70;;;;;;5045578;28;20017;-76
2020/12/06 11:22:49;;;;;;;5.30;2.95;;;13.80;67.70;;;;;;5032355;28;20040;-76
2020/12/06 11:25:20;;;;;;;4.95;3.30;;;13.80;67.70;;;;;;5047742;28;20055;-76
2020/12/06 11:28:01;;;;;;;4.72;3.42;;;13.80;67.70;;;;;;5053280;28;20033;-78
2020/12/06 11:30:29;;;;;;;5.30;2.90;;;13.80;67.80;;;;;;5054302;28;20037;-74
2020/12/06 11:33:02;;;;;;;4.68;3.17;;;13.80;67.90;;;;;;5043406;28;20504;-76
2020/12/06 11:35:53;;;;;;;7.65;2.78;;;13.80;67.90;;;;;;5034244;28;20030;-75
2020/12/06 11:38:35;;;;;;;4.93;3.42;;;13.80;68.00;;;;;;5037876;28;20389;-76
2020/12/06 11:41:28;;;;;;;4.50;3.28;;;13.80;68.00;;;;;;5031494;28;20401;-75
2020/12/06 11:44:09;;;;;;;5.05;2.90;;;13.80;67.90;;;;;;5043801;28;20024;-76
2020/12/06 11:46:39;;;;;;;5.40;3.38;;;13.80;68.00;;;;;;5038439;28;20025;-76
2020/12/06 11:49:31;;;;;;;4.85;3.28;;;13.80;68.00;;;;;;5038582;28;20098;-76
2020/12/06 11:52:11;;;;;;;4.30;2.60;;;13.80;68.00;;;;;;5043372;28;20025;-87
2020/12/06 11:54:45;;;;;;;9.57;2.97;;;13.80;68.00;;;;;;5050981;28;20091;-83
2020/12/06 11:57:18;;;;;;;4.38;3.03;;;13.80;68.10;;;;;;5042058;28;20082;-78
2020/12/06 11:59:53;;;;;;;5.30;3.00;;;13.80;68.10;;;;;;5053926;28;20086;-77
2020/12/06 12:02:28;;;;;;;3.70;2.72;;;13.80;68.20;;;;;;5037586;28;20090;-77
2020/12/06 12:05:06;;;;;;;5.00;3.45;;;13.80;68.30;;;;;;5028516;28;20082;-77
2020/12/06 12:08:25;;;;;;;;;;;;;;;;;;;;;
2020/12/06 12:11:03;;;;;;;5.07;3.10;;;13.80;68.20;;;;;;5043151;28;20028;-79
2020/12/06 12:13:52;;;;;;;7.13;3.60;;;13.80;68.30;;;;;;5030796;28;20033;-83
2020/12/06 12:16:22;;;;;;;9.13;3.92;;;13.80;68.30;;;;;;5045420;28;20121;-76
2020/12/06 12:19:10;;;;;;;15.73;5.20;;;13.80;68.80;;;;;;5051169;28;20036;-76
2020/12/06 12:21:57;;;;;;;24.43;5.07;;;13.80;70.10;;;;;;5057887;28;20025;-78
2020/12/06 12:24:26;;;;;;;15.53;4.47;;;14.00;70.90;;;;;;5044616;28;20162;-76
2020/12/06 12:27:04;;;;;;;26.60;5.60;;;14.10;70.80;;;;;;5069358;28;20267;-76
2020/12/06 12:29:37;;;;;;;25.45;5.28;;;14.10;70.60;;;;;;5042029;28;20028;-83
2020/12/06 12:32:10;;;;;;;16.90;6.05;;;14.10;70.90;;;;;;5035384;28;20116;-78
2020/12/06 12:34:46;;;;;;;12.10;5.00;;;14.20;71.40;;;;;;5040765;28;20021;-78
2020/12/06 12:37:33;;;;;;;17.55;4.80;;;14.30;70.90;;;;;;5028959;28;20032;-78
2020/12/06 12:40:11;;;;;;;22.38;5.00;;;14.30;71.20;;;;;;5033350;28;20032;-77
2020/12/06 12:43:08;;;;;;;26.08;5.10;;;14.30;71.20;;;;;;5045229;28;20095;-75
2020/12/06 12:45:36;;;;;;;8.65;4.20;;;14.30;70.70;;;;;;5026834;28;20033;-75
2020/12/06 12:48:25;;;;;;;10.07;4.35;;;14.20;70.50;;;;;;5051208;28;20409;-76
2020/12/06 12:50:55;;;;;;;11.63;4.85;;;14.20;70.50;;;;;;5055709;28;20025;-75
2020/12/06 12:53:43;;;;;;;14.73;5.72;;;14.10;70.40;;;;;;5059244;28;20083;-77
2020/12/06 12:56:18;;;;;;;13.50;4.88;;;14.00;70.40;;;;;;5021822;28;20052;-75
2020/12/06 12:59:01;;;;;;;11.02;4.57;;;14.00;70.40;;;;;;5059214;28;20132;-76
2020/12/06 13:01:37;;;;;;;;;;;;;;;;;;;;;
2020/12/06 13:04:26;;;;;;;16.90;4.15;;;13.90;70.40;;;;;;5060346;28;20029;-76
2020/12/06 13:07:05;;;;;;;10.18;5.32;;;13.80;70.40;;;;;;5057045;28;20112;-76
2020/12/06 13:09:55;;;;;;;18.48;4.72;;;13.90;70.40;;;;;;5037031;28;20479;-76
2020/12/06 13:12:52;;;;;;;15.75;4.28;;;13.80;70.40;;;;;;5050966;28;20037;-76
2020/12/06 13:15:57;;;;;;;8.47;4.10;;;13.80;70.30;;;;;;5041861;28;20033;-76
2020/12/06 13:18:56;;;;;;;20.60;4.57;;;13.80;70.30;;;;;;5057678;28;20294;-76
2020/12/06 13:21:38;;;;;;;12.20;4.45;;;13.80;70.20;;;;;;5067407;28;20478;-76
2020/12/06 13:24:51;;;;;;;8.38;4.18;;;13.80;70.20;;;;;;5057578;28;20398;-76
2020/12/06 13:27:36;;;;;;;8.23;4.10;;;13.80;70.20;;;;;;4962222;28;20175;-76
2020/12/06 13:30:47;;;;;;;7.45;3.67;;;13.80;70.10;;;;;;5019090;28;20045;-77
2020/12/06 13:34:00;;;;;;;7.28;3.85;;;13.80;70.10;;;;;;5033199;28;20033;-76
2020/12/06 13:36:58;;;;;;;8.55;4.32;;;13.80;70.00;;;;;;5031603;28;20041;-76
2020/12/06 13:39:28;;;;;;;8.90;4.40;;;13.80;70.00;;;;;;5009537;28;20498;-76
2020/12/06 13:42:24;;;;;;;7.88;4.05;;;13.80;70.00;;;;;;5025708;28;20482;-78
2020/12/06 13:44:55;;;;;;;7.75;3.47;;;13.80;70.00;;;;;;5019778;28;20486;-76
2020/12/06 13:47:29;;;;;;;6.95;4.05;;;13.80;69.90;;;;;;5019513;28;20033;-76
2020/12/06 13:50:03;;;;;;;9.30;3.88;;;13.80;69.90;;;;;;5017464;28;20060;-76
2020/12/06 13:52:38;;;;;;;10.65;4.20;;;13.80;69.90;;;;;;5020932;28;20412;-76
2020/12/06 13:55:09;;;;;;;10.50;4.20;;;13.80;69.90;;;;;;5058937;28;20057;-76
2020/12/06 13:57:40;;;;;;;10.68;4.13;;;13.80;69.90;;;;;;5025122;28;20490;-76
2020/12/06 14:00:19;;;;;;;8.32;4.63;;;13.80;69.80;;;;;;5038738;28;20026;-76
2020/12/06 14:02:57;;;;;;;10.50;4.07;;;13.80;69.80;;;;;;5025105;28;20029;-76
2020/12/06 14:05:30;;;;;;;;;;;13.70;69.80;;;;;;5025726;28;20029;-78
2020/12/06 14:07:59;;;;;;;9.98;5.28;;;13.80;69.80;;;;;;5014617;28;20359;-78
2020/12/06 14:10:24;;;;;;;6.32;4.20;;;13.80;69.80;;;;;;5036659;28;20034;-76
2020/12/06 14:12:56;;;;;;;5.38;3.28;;;13.70;69.70;;;;;;5032757;28;20036;-77
2020/12/06 14:15:27;;;;;;;8.07;3.83;;;13.70;69.70;;;;;;5008060;28;20025;-76
2020/12/06 14:18:04;;;;;;;6.47;4.07;;;13.70;69.70;;;;;;5051908;28;20075;-76
2020/12/06 14:20:48;;;;;;;5.43;3.50;;;13.70;69.70;;;;;;5044530;28;20025;-77
2020/12/06 14:23:38;;;;;;;5.95;3.88;;;13.70;69.70;;;;;;5031083;28;20050;-77
2020/12/06 14:26:27;;;;;;;7.28;3.97;;;13.70;69.70;;;;;;5029093;28;20032;-77
2020/12/06 14:29:26;;;;;;;7.45;4.10;;;13.70;69.60;;;;;;5032092;28;20040;-77
2020/12/06 14:32:15;;;;;;;7.72;3.80;;;13.70;69.60;;;;;;5041277;28;20095;-76